createdAt,value
2023-01-13T00:01:49.120Z,61.31
2023-01-13T00:04:17.189Z,64.01
2023-01-13T00:06:45.470Z,63.91
2023-01-13T00:09:13.643Z,62.10
2023-01-13T00:12:01.030Z,60.33
2023-01-13T00:14:30.370Z,58.98
2023-01-13T00:16:58.470Z,59.54
2023-01-13T00:19:26.609Z,62.03
2023-01-13T00:21:55.104Z,64.28
2023-01-13T00:24:23.368Z,64.04
2023-01-13T00:26:52.970Z,62.27
2023-01-13T00:29:21.151Z,60.68
2023-01-13T00:31:50.137Z,59.89
2023-01-13T00:34:18.419Z,58.80
2023-01-13T00:36:49.253Z,60.08
2023-01-13T00:39:17.253Z,62.23
2023-01-13T00:42:04.365Z,64.49
2023-01-13T00:44:51.411Z,63.27
2023-01-13T00:47:19.525Z,61.90
2023-01-13T00:49:47.595Z,60.53
2023-01-13T00:52:16.390Z,58.16
2023-01-13T00:54:49.287Z,59.03
2023-01-13T00:57:19.803Z,61.62
2023-01-13T00:59:49.655Z,63.89
2023-01-13T01:02:18.067Z,63.13
2023-01-13T01:04:46.427Z,61.04
2023-01-13T01:07:14.468Z,60.16
2023-01-13T01:09:42.609Z,58.79
2023-01-13T01:12:10.833Z,59.42
2023-01-13T01:14:38.857Z,61.88
2023-01-13T01:17:07.035Z,64.02
2023-01-13T01:19:37.558Z,64.09
2023-01-13T01:22:05.708Z,62.66
2023-01-13T01:24:33.915Z,60.42
2023-01-13T01:27:03.943Z,58.64
2023-01-13T01:29:32.100Z,59.83
2023-01-13T01:32:00.163Z,61.78
2023-01-13T01:34:28.240Z,64.18
2023-01-13T01:36:56.311Z,64.13
2023-01-13T01:39:24.457Z,62.26
2023-01-13T01:42:11.702Z,60.41
2023-01-13T01:44:42.644Z,58.66
2023-01-13T01:47:14.614Z,59.05
2023-01-13T01:49:44.351Z,61.33
2023-01-13T01:52:17.024Z,64.03
2023-01-13T01:55:10.724Z,64.02
2023-01-13T01:57:45.738Z,61.85
2023-01-13T02:00:32.683Z,60.32
2023-01-13T02:03:01.570Z,58.80
2023-01-13T02:05:29.755Z,59.20
2023-01-13T02:08:00.070Z,61.08
2023-01-13T02:10:34.426Z,63.53
2023-01-13T02:13:06.819Z,63.92
2023-01-13T02:16:15.485Z,61.43
2023-01-13T02:18:43.997Z,59.96
2023-01-13T02:21:36.336Z,58.69
2023-01-13T02:24:54.584Z,59.13
2023-01-13T02:27:51.124Z,61.35
2023-01-13T02:31:06.412Z,64.57
2023-01-13T02:33:42.367Z,64.62
2023-01-13T02:36:43.912Z,62.34
2023-01-13T02:39:23.778Z,60.61
2023-01-13T02:42:24.192Z,60.13
2023-01-13T02:45:02.143Z,58.08
2023-01-13T02:47:36.055Z,59.09
2023-01-13T02:50:08.971Z,61.35
2023-01-13T02:53:12.215Z,64.47
2023-01-13T02:55:48.734Z,64.32
2023-01-13T02:58:21.334Z,62.52
2023-01-13T03:00:49.534Z,61.25
2023-01-13T03:03:18.013Z,60.36
2023-01-13T03:05:52.068Z,59.91
2023-01-13T03:08:39.606Z,57.97
2023-01-13T03:11:14.244Z,58.28
2023-01-13T03:14:19.287Z,60.13
2023-01-13T03:17:20.634Z,63.68
2023-01-13T03:20:05.007Z,64.56
2023-01-13T03:22:55.795Z,62.94
2023-01-13T03:25:31.919Z,61.57
2023-01-13T03:28:08.728Z,60.15
2023-01-13T03:31:03.706Z,58.17
2023-01-13T03:33:39.655Z,58.11
2023-01-13T03:36:11.552Z,60.96
2023-01-13T03:38:45.049Z,63.88
2023-01-13T03:41:19.128Z,64.83
2023-01-13T03:44:22.476Z,62.79
2023-01-13T03:46:56.388Z,61.99
2023-01-13T03:49:30.412Z,60.87
2023-01-13T03:52:04.594Z,60.14
2023-01-13T03:54:38.397Z,58.40
2023-01-13T03:57:12.308Z,58.10
2023-01-13T03:59:46.980Z,60.95
2023-01-13T04:02:36.438Z,63.75
2023-01-13T04:05:09.450Z,64.46
2023-01-13T04:08:16.921Z,63.27
2023-01-13T04:10:49.341Z,61.51
2023-01-13T04:13:39.959Z,60.79
2023-01-13T04:16:11.329Z,58.22
2023-01-13T04:18:40.032Z,58.13
2023-01-13T04:21:08.329Z,59.71
2023-01-13T04:23:36.949Z,63.27
2023-01-13T04:26:05.124Z,64.39
2023-01-13T04:28:35.081Z,62.99
2023-01-13T04:31:03.586Z,61.52
2023-01-13T04:33:31.700Z,60.54
2023-01-13T04:35:59.758Z,59.86
2023-01-13T04:38:30.099Z,58.67
2023-01-13T04:40:58.271Z,58.26
2023-01-13T04:43:26.308Z,60.83
2023-01-13T04:45:54.578Z,63.56
2023-01-13T04:48:22.666Z,64.40
2023-01-13T04:50:50.659Z,63.37
2023-01-13T04:53:18.822Z,62.27
2023-01-13T04:55:48.042Z,61.12
2023-01-13T04:58:16.092Z,58.82
2023-01-13T05:00:44.369Z,59.07
2023-01-13T05:03:12.444Z,60.77
2023-01-13T05:05:59.356Z,64.03
2023-01-13T05:08:27.426Z,64.30
2023-01-13T05:10:55.706Z,63.21
2023-01-13T05:13:42.625Z,61.28
2023-01-13T05:16:48.273Z,60.78
2023-01-13T05:19:16.839Z,58.49
2023-01-13T05:22:03.488Z,58.02
2023-01-13T05:24:57.812Z,60.60
2023-01-13T05:27:26.225Z,64.50
2023-01-13T05:29:55.145Z,64.90
2023-01-13T05:32:24.002Z,63.64
2023-01-13T05:34:52.071Z,60.92
2023-01-13T05:37:20.266Z,59.98
2023-01-13T05:40:06.671Z,57.99
2023-01-13T05:42:53.325Z,57.83
2023-01-13T05:45:21.631Z,59.80
2023-01-13T05:47:49.805Z,64.11
2023-01-13T05:50:18.185Z,64.68
2023-01-13T05:52:46.253Z,62.56
2023-01-13T05:55:16.460Z,61.47
2023-01-13T05:57:44.884Z,60.79
2023-01-13T06:00:13.520Z,58.60
2023-01-13T06:03:00.272Z,59.10
2023-01-13T06:05:33.344Z,61.19
2023-01-13T06:08:03.684Z,64.55
2023-01-13T06:10:50.461Z,64.72
2023-01-13T06:13:18.748Z,62.40
2023-01-13T06:15:46.894Z,60.68
2023-01-13T06:18:15.122Z,58.91
2023-01-13T06:20:43.271Z,59.23
2023-01-13T06:23:12.067Z,61.20
2023-01-13T06:25:48.020Z,64.30
2023-01-13T06:28:16.288Z,64.28
2023-01-13T06:30:51.341Z,62.96
2023-01-13T06:33:26.825Z,61.57
2023-01-13T06:36:03.024Z,60.38
2023-01-13T06:38:37.556Z,60.09
2023-01-13T06:41:08.188Z,60.08
2023-01-13T06:43:36.568Z,58.36
2023-01-13T06:46:05.124Z,58.65
2023-01-13T06:48:35.692Z,60.53
2023-01-13T06:51:08.153Z,63.79
2023-01-13T06:53:36.521Z,63.89
2023-01-13T06:56:05.027Z,62.96
2023-01-13T06:58:52.142Z,60.95
2023-01-13T07:01:20.300Z,59.06
2023-01-13T07:03:48.483Z,58.90
2023-01-13T07:06:20.663Z,60.18
2023-01-13T07:08:48.918Z,61.52
2023-01-13T07:11:17.030Z,65.63
2023-01-13T07:14:04.112Z,65.31
2023-01-13T07:16:32.405Z,63.00
2023-01-13T07:19:23.895Z,61.45
2023-01-13T07:21:52.815Z,60.62
2023-01-13T07:24:20.962Z,58.44
2023-01-13T07:26:51.388Z,58.87
2023-01-13T07:29:19.987Z,61.21
2023-01-13T07:31:50.139Z,64.06
2023-01-13T07:34:18.678Z,64.46
2023-01-13T07:36:47.050Z,62.69
2023-01-13T07:39:15.072Z,61.34
2023-01-13T07:42:01.729Z,59.91
2023-01-13T07:44:30.060Z,58.43
2023-01-13T07:46:58.179Z,58.96
2023-01-13T07:49:26.194Z,60.48
2023-01-13T07:51:54.536Z,63.94
2023-01-13T07:54:39.115Z,64.56
2023-01-13T07:57:26.968Z,62.93
2023-01-13T07:59:55.552Z,61.55
2023-01-13T08:02:24.287Z,60.05
2023-01-13T08:04:53.380Z,58.35
2023-01-13T08:07:21.552Z,58.41
2023-01-13T08:09:49.842Z,60.41
2023-01-13T08:12:38.654Z,63.79
2023-01-13T08:15:10.065Z,64.76
2023-01-13T08:17:38.282Z,63.05
2023-01-13T08:20:07.313Z,61.59
2023-01-13T08:22:35.486Z,60.24
2023-01-13T08:25:04.191Z,58.72
2023-01-13T08:27:50.987Z,58.28
2023-01-13T08:30:19.758Z,61.41
2023-01-13T08:32:49.683Z,64.23
2023-01-13T08:35:18.783Z,64.82
2023-01-13T08:37:48.613Z,62.56
2023-01-13T08:40:19.110Z,61.86
2023-01-13T08:42:48.685Z,60.27
2023-01-13T08:45:17.099Z,57.93
2023-01-13T08:47:45.176Z,58.27
2023-01-13T08:50:13.663Z,60.47
2023-01-13T08:52:42.138Z,63.58
2023-01-13T08:55:11.423Z,64.41
2023-01-13T08:57:39.566Z,61.87
2023-01-13T09:00:12.904Z,60.36
2023-01-13T09:02:41.221Z,59.82
2023-01-13T09:05:10.910Z,56.84
2023-01-13T09:07:39.782Z,57.95
2023-01-13T09:10:26.635Z,59.88
2023-01-13T09:13:12.619Z,63.47
2023-01-13T09:15:59.880Z,64.28
2023-01-13T09:18:27.969Z,61.25
2023-01-13T09:20:56.250Z,58.59
2023-01-13T09:23:26.374Z,58.26
2023-01-13T09:25:54.419Z,60.73
2023-01-13T09:28:22.512Z,64.40
2023-01-13T09:30:50.663Z,64.26
2023-01-13T09:33:37.608Z,62.49
2023-01-13T09:36:06.446Z,60.92
2023-01-13T09:38:34.561Z,58.22
2023-01-13T09:41:23.427Z,58.34
2023-01-13T09:43:57.772Z,60.46
2023-01-13T09:46:49.908Z,64.06
2023-01-13T09:49:33.586Z,64.22
2023-01-13T09:52:15.330Z,61.33
2023-01-13T09:55:05.200Z,59.37
2023-01-13T09:57:52.618Z,57.36
2023-01-13T10:00:44.948Z,59.08
2023-01-13T10:03:26.166Z,60.68
2023-01-13T10:06:22.475Z,64.99
2023-01-13T10:08:51.411Z,64.04
2023-01-13T10:11:40.401Z,59.36
2023-01-13T10:14:42.586Z,58.74
2023-01-13T10:17:29.812Z,60.61
2023-01-13T10:20:18.372Z,63.82
2023-01-13T10:22:53.964Z,62.73
2023-01-13T10:25:36.415Z,59.44
2023-01-13T10:28:13.614Z,58.51
2023-01-13T10:30:46.896Z,61.12
2023-01-13T10:33:22.015Z,63.80
2023-01-13T10:36:23.192Z,64.66
2023-01-13T10:38:51.829Z,62.64
2023-01-13T10:41:27.891Z,62.87
2023-01-13T10:44:02.336Z,58.22
2023-01-13T10:46:49.867Z,57.24
2023-01-13T10:49:50.769Z,58.07
2023-01-13T10:52:28.719Z,59.41
2023-01-13T10:54:58.114Z,63.57
2023-01-13T10:57:27.838Z,64.84
2023-01-13T11:00:30.308Z,62.60
2023-01-13T11:03:16.784Z,60.57
2023-01-13T11:05:54.103Z,57.72
2023-01-13T11:08:25.634Z,56.67
2023-01-13T11:10:57.762Z,59.40
2023-01-13T11:14:03.774Z,60.40
2023-01-13T11:16:33.243Z,64.02
2023-01-13T11:19:14.203Z,62.98
2023-01-13T11:22:09.569Z,59.34
2023-01-13T11:24:50.786Z,57.68
2023-01-13T11:27:49.583Z,59.36
2023-01-13T11:30:52.553Z,61.73
2023-01-13T11:33:30.821Z,64.43
2023-01-13T11:36:06.892Z,61.96
2023-01-13T11:38:52.067Z,58.69
2023-01-13T11:41:41.736Z,58.59
2023-01-13T11:44:10.219Z,60.51
2023-01-13T11:46:43.635Z,60.52
2023-01-13T11:49:29.512Z,61.98
2023-01-13T11:52:12.938Z,63.41
2023-01-13T11:54:58.412Z,61.27
2023-01-13T11:57:51.673Z,57.79
2023-01-13T12:00:28.990Z,57.74
2023-01-13T12:03:23.397Z,59.11
2023-01-13T12:06:13.640Z,59.23
2023-01-13T12:08:58.017Z,60.63
2023-01-13T12:12:15.040Z,61.77
2023-01-13T12:15:06.441Z,63.38
2023-01-13T12:18:08.200Z,63.76
2023-01-13T12:21:24.513Z,58.75
2023-01-13T12:24:05.585Z,58.52
2023-01-13T12:26:39.021Z,60.06
2023-01-13T12:29:13.207Z,60.77
2023-01-13T12:31:43.473Z,61.68
2023-01-13T12:34:33.297Z,63.54
2023-01-13T12:37:07.705Z,62.69
2023-01-13T12:40:16.619Z,59.23
2023-01-13T12:43:06.927Z,58.69
2023-01-13T12:45:35.338Z,60.17
2023-01-13T12:48:05.235Z,61.24
2023-01-13T12:50:37.674Z,63.04
2023-01-13T12:53:35.613Z,63.27
2023-01-13T12:56:30.806Z,62.06
2023-01-13T12:59:17.794Z,57.37
2023-01-13T13:01:48.785Z,55.85
2023-01-13T13:04:41.586Z,57.64
2023-01-13T13:07:14.923Z,58.39
2023-01-13T13:09:53.246Z,60.06
2023-01-13T13:12:49.374Z,60.75
2023-01-13T13:15:29.576Z,63.67
2023-01-13T13:18:21.097Z,62.84
2023-01-13T13:20:58.884Z,59.35
2023-01-13T13:23:48.125Z,57.39
2023-01-13T13:26:25.437Z,57.95
2023-01-13T13:29:14.918Z,58.72
2023-01-13T13:31:49.171Z,60.00
2023-01-13T13:34:32.381Z,62.98
2023-01-13T13:37:19.981Z,64.51
2023-01-13T13:40:07.308Z,61.41
2023-01-13T13:43:06.209Z,58.18
2023-01-13T13:45:53.274Z,56.69
2023-01-13T13:48:30.745Z,58.46
2023-01-13T13:51:41.230Z,60.32
2023-01-13T13:54:14.013Z,62.88
2023-01-13T13:56:45.611Z,64.11
2023-01-13T13:59:18.610Z,62.50
2023-01-13T14:01:53.819Z,59.07
2023-01-13T14:04:27.579Z,57.69
2023-01-13T14:07:05.427Z,58.82
2023-01-13T14:09:45.972Z,60.08
2023-01-13T14:12:20.567Z,63.46
2023-01-13T14:14:50.034Z,64.57
2023-01-13T14:17:38.671Z,61.04
2023-01-13T14:20:14.906Z,57.67
2023-01-13T14:22:52.275Z,57.68
2023-01-13T14:25:32.700Z,59.48
2023-01-13T14:28:20.890Z,60.27
2023-01-13T14:31:09.552Z,63.86
2023-01-13T14:33:50.511Z,62.73
2023-01-13T14:36:24.248Z,60.62
2023-01-13T14:39:05.388Z,57.76
2023-01-13T14:41:36.126Z,56.16
2023-01-13T14:44:36.826Z,57.28
2023-01-13T14:47:21.111Z,59.19
2023-01-13T14:50:11.084Z,59.52
2023-01-13T14:53:02.509Z,61.39
2023-01-13T14:55:38.673Z,63.85
2023-01-13T14:58:38.275Z,63.79
2023-01-13T15:01:29.066Z,59.79
2023-01-13T15:04:16.996Z,58.45
2023-01-13T15:06:51.511Z,58.80
2023-01-13T15:09:33.505Z,59.78
2023-01-13T15:12:35.984Z,60.48
2023-01-13T15:15:25.262Z,64.31
2023-01-13T15:17:53.883Z,65.25
2023-01-13T15:20:24.088Z,63.12
2023-01-13T15:23:11.288Z,59.07
2023-01-13T15:25:43.784Z,56.57
2023-01-13T15:28:21.400Z,57.71
2023-01-13T15:30:53.485Z,58.20
2023-01-13T15:33:22.249Z,59.92
2023-01-13T15:36:20.913Z,61.01
2023-01-13T15:38:49.608Z,64.41
2023-01-13T15:41:18.003Z,64.74
2023-01-13T15:44:09.191Z,61.66
2023-01-13T15:46:40.356Z,58.18
2023-01-13T15:49:35.060Z,57.45
2023-01-13T15:52:18.050Z,58.81
2023-01-13T15:54:46.221Z,60.05
2023-01-13T15:57:29.557Z,62.67
2023-01-13T16:00:20.341Z,64.65
2023-01-13T16:02:54.571Z,61.35
2023-01-13T16:05:22.668Z,57.32
2023-01-13T16:07:51.159Z,56.68
2023-01-13T16:10:25.770Z,58.19
2023-01-13T16:12:55.971Z,59.66
2023-01-13T16:15:25.100Z,61.32
2023-01-13T16:17:59.954Z,63.82
2023-01-13T16:20:28.116Z,64.91
2023-01-13T16:22:56.264Z,62.54
2023-01-13T16:25:26.998Z,59.01
2023-01-13T16:28:26.676Z,57.59
2023-01-13T16:30:54.916Z,58.72
2023-01-13T16:33:23.107Z,60.46
2023-01-13T16:36:10.288Z,63.31
2023-01-13T16:38:39.398Z,64.37
2023-01-13T16:41:07.869Z,62.23
2023-01-13T16:43:36.474Z,58.78
2023-01-13T16:46:25.978Z,56.82
2023-01-13T16:48:57.402Z,57.34
2023-01-13T16:51:25.595Z,59.34
2023-01-13T16:53:53.815Z,61.16
2023-01-13T16:56:31.193Z,64.08
2023-01-13T16:59:13.757Z,64.83
2023-01-13T17:01:44.911Z,61.69
2023-01-13T17:04:21.787Z,58.32
2023-01-13T17:07:08.486Z,57.29
2023-01-13T17:09:40.673Z,58.27
2023-01-13T17:12:27.859Z,58.86
2023-01-13T17:15:16.882Z,63.01
2023-01-13T17:17:52.025Z,63.33
2023-01-13T17:20:38.489Z,61.39
2023-01-13T17:23:25.603Z,58.05
2023-01-13T17:25:54.886Z,57.64
2023-01-13T17:28:23.068Z,58.57
2023-01-13T17:30:51.556Z,60.45
2023-01-13T17:33:19.618Z,63.11
2023-01-13T17:35:47.809Z,63.86
2023-01-13T17:38:16.629Z,61.98
2023-01-13T17:40:44.710Z,58.54
2023-01-13T17:43:12.753Z,57.41
2023-01-13T17:45:41.864Z,59.32
2023-01-13T17:48:10.127Z,61.25
2023-01-13T17:50:38.808Z,63.72
2023-01-13T17:53:07.074Z,64.89
2023-01-13T17:55:35.441Z,62.66
2023-01-13T17:58:03.510Z,59.01
2023-01-13T18:00:31.886Z,57.68
2023-01-13T18:02:59.979Z,59.36
2023-01-13T18:05:28.646Z,61.11
2023-01-13T18:08:01.220Z,63.66
2023-01-13T18:10:29.700Z,63.85
2023-01-13T18:12:57.725Z,61.88
2023-01-13T18:15:48.985Z,58.56
2023-01-13T18:18:17.270Z,56.55
2023-01-13T18:21:04.684Z,57.99
2023-01-13T18:24:01.898Z,59.01
2023-01-13T18:26:49.260Z,60.76
2023-01-13T18:29:17.335Z,64.56
2023-01-13T18:32:04.345Z,64.23
2023-01-13T18:34:36.953Z,62.49
2023-01-13T18:37:06.972Z,58.19
2023-01-13T18:39:37.569Z,55.75
2023-01-13T18:42:26.514Z,57.54
2023-01-13T18:45:13.546Z,58.52
2023-01-13T18:47:46.660Z,60.31
2023-01-13T18:50:35.038Z,63.33
2023-01-13T18:53:03.574Z,64.73
2023-01-13T18:55:31.849Z,61.75
2023-01-13T18:58:00.545Z,58.09
2023-01-13T19:00:47.237Z,56.00
2023-01-13T19:03:29.542Z,56.83
2023-01-13T19:06:07.590Z,58.57
2023-01-13T19:08:36.777Z,60.15
2023-01-13T19:11:08.192Z,62.88
2023-01-13T19:13:37.090Z,64.35
2023-01-13T19:16:23.799Z,62.69
2023-01-13T19:18:51.883Z,58.49
2023-01-13T19:21:20.248Z,56.72
2023-01-13T19:23:48.619Z,57.53
2023-01-13T19:26:16.667Z,59.11
2023-01-13T19:28:44.762Z,60.16
2023-01-13T19:31:12.968Z,63.42
2023-01-13T19:33:41.155Z,64.89
2023-01-13T19:36:10.507Z,61.61
2023-01-13T19:38:38.570Z,57.94
2023-01-13T19:41:43.966Z,56.99
2023-01-13T19:44:31.046Z,58.54
2023-01-13T19:46:59.068Z,59.82
2023-01-13T19:49:30.400Z,63.07
2023-01-13T19:51:58.749Z,64.34
2023-01-13T19:54:27.030Z,61.11
2023-01-13T19:57:15.286Z,57.91
2023-01-13T19:59:43.350Z,56.39
2023-01-13T20:02:28.436Z,58.42
2023-01-13T20:04:58.355Z,61.12
2023-01-13T20:07:29.000Z,62.97
2023-01-13T20:09:57.740Z,62.83
2023-01-13T20:12:26.563Z,60.57
2023-01-13T20:14:55.004Z,56.94
2023-01-13T20:17:25.741Z,56.64
2023-01-13T20:19:54.017Z,58.51
2023-01-13T20:22:24.445Z,60.60
2023-01-13T20:24:55.476Z,62.87
2023-01-13T20:27:43.729Z,62.35
2023-01-13T20:30:16.208Z,58.78
2023-01-13T20:32:44.691Z,58.25
2023-01-13T20:35:13.170Z,59.26
2023-01-13T20:38:00.283Z,61.62
2023-01-13T20:40:28.767Z,64.05
2023-01-13T20:42:57.241Z,63.38
2023-01-13T20:45:44.363Z,59.98
2023-01-13T20:48:12.346Z,56.67
2023-01-13T20:50:40.379Z,57.78
2023-01-13T20:53:09.186Z,59.30
2023-01-13T20:55:39.901Z,61.26
2023-01-13T20:58:07.877Z,63.50
2023-01-13T21:00:36.123Z,64.45
2023-01-13T21:03:04.451Z,61.38
2023-01-13T21:05:35.075Z,56.79
2023-01-13T21:08:03.809Z,55.40
2023-01-13T21:10:32.083Z,57.00
2023-01-13T21:13:23.389Z,58.89
2023-01-13T21:15:52.454Z,60.17
2023-01-13T21:18:39.329Z,63.16
2023-01-13T21:21:14.001Z,64.32
2023-01-13T21:23:44.407Z,59.83
2023-01-13T21:26:12.689Z,56.14
2023-01-13T21:28:40.793Z,56.47
2023-01-13T21:31:10.163Z,58.69
2023-01-13T21:33:38.746Z,59.43
2023-01-13T21:36:08.415Z,61.39
2023-01-13T21:38:36.523Z,64.39
2023-01-13T21:41:07.996Z,63.89
2023-01-13T21:43:56.270Z,60.04
2023-01-13T21:46:57.284Z,56.40
2023-01-13T21:49:25.333Z,56.62
2023-01-13T21:51:53.628Z,59.12
2023-01-13T21:54:21.783Z,60.85
2023-01-13T21:57:08.809Z,63.64
2023-01-13T21:59:36.809Z,62.25
2023-01-13T22:02:25.411Z,58.14
2023-01-13T22:04:54.008Z,57.21
2023-01-13T22:07:21.999Z,58.54
2023-01-13T22:09:50.047Z,60.74
2023-01-13T22:12:37.207Z,63.26
2023-01-13T22:15:29.413Z,62.46
2023-01-13T22:17:57.676Z,58.38
2023-01-13T22:20:26.466Z,58.04
2023-01-13T22:22:54.742Z,59.69
2023-01-13T22:25:23.740Z,61.36
2023-01-13T22:28:14.038Z,63.51
2023-01-13T22:30:42.512Z,61.62
2023-01-13T22:33:10.580Z,59.25
2023-01-13T22:35:38.754Z,58.33
2023-01-13T22:38:07.067Z,60.00
2023-01-13T22:40:35.105Z,61.73
2023-01-13T22:43:03.152Z,63.55
2023-01-13T22:45:31.309Z,62.86
2023-01-13T22:47:59.423Z,59.78
2023-01-13T22:50:27.795Z,57.26
2023-01-13T22:52:55.942Z,57.83
2023-01-13T22:55:23.949Z,59.81
2023-01-13T22:57:52.121Z,61.34
2023-01-13T23:00:20.795Z,63.42
2023-01-13T23:02:48.779Z,62.48
2023-01-13T23:05:35.881Z,59.76
2023-01-13T23:08:04.179Z,56.55
2023-01-13T23:10:32.556Z,56.89
2023-01-13T23:13:00.881Z,58.97
2023-01-13T23:15:34.929Z,61.01
2023-01-13T23:18:03.715Z,62.78
2023-01-13T23:20:31.852Z,63.58
2023-01-13T23:22:59.919Z,59.64
2023-01-13T23:25:28.133Z,56.68
2023-01-13T23:27:56.231Z,56.95
2023-01-13T23:30:24.202Z,59.11
2023-01-13T23:32:52.345Z,60.53
2023-01-13T23:35:20.387Z,61.99
2023-01-13T23:37:48.594Z,63.82
2023-01-13T23:40:16.761Z,63.97
2023-01-13T23:42:49.237Z,60.12
2023-01-13T23:45:36.304Z,56.91
2023-01-13T23:48:05.452Z,57.16
2023-01-13T23:50:33.828Z,59.18
2023-01-13T23:53:20.842Z,61.03
2023-01-13T23:55:48.834Z,62.20
2023-01-13T23:58:16.989Z,63.80
